sensor_id;sensor_type;location;lat;lon;timestamp;pressure;altitude;pressure_sealevel;temperature;humidity
49947;BME280;35839;48.662;13.300;2022-12-20T06:02:32;98184.34;;;-3.42;100.00
49947;BME280;35839;48.662;13.300;2022-12-20T06:04:57;98178.38;;;-3.42;100.00
49947;BME280;35839;48.662;13.300;2022-12-20T06:07:24;98183.94;;;-3.28;100.00
49947;BME280;35839;48.662;13.300;2022-12-20T06:09:49;98182.38;;;-3.33;100.00
49947;BME280;35839;48.662;13.300;2022-12-20T06:12:15;98172.31;;;-3.40;100.00
49947;BME280;35839;48.662;13.300;2022-12-20T06:14:40;98176.41;;;-3.34;100.00
49947;BME280;35839;48.662;13.300;2022-12-20T06:17:06;98176.72;;;-3.15;100.00
49947;BME280;35839;48.662;13.300;2022-12-20T06:19:31;98171.84;;;-3.24;100.00
49947;BME280;35839;48.662;13.300;2022-12-20T06:21:57;98166.38;;;-3.40;100.00
49947;BME280;35839;48.662;13.300;2022-12-20T06:24:22;98156.41;;;-3.49;100.00
49947;BME280;35839;48.662;13.300;2022-12-20T06:26:50;98150.25;;;-3.44;100.00
49947;BME280;35839;48.662;13.300;2022-12-20T06:29:16;98158.03;;;-3.47;100.00
49947;BME280;35839;48.662;13.300;2022-12-20T06:31:42;98147.72;;;-3.45;100.00
49947;BME280;35839;48.662;13.300;2022-12-20T06:34:07;98138.25;;;-3.42;100.00
49947;BME280;35839;48.662;13.300;2022-12-20T06:36:33;98143.34;;;-3.42;100.00
49947;BME280;35839;48.662;13.300;2022-12-20T06:38:58;98141.44;;;-3.63;100.00
49947;BME280;35839;48.662;13.300;2022-12-20T06:41:23;98148.75;;;-3.51;100.00
49947;BME280;35839;48.662;13.300;2022-12-20T06:43:49;98153.59;;;-3.42;100.00
49947;BME280;35839;48.662;13.300;2022-12-20T06:46:14;98147.22;;;-3.56;100.00
49947;BME280;35839;48.662;13.300;2022-12-20T06:48:39;98143.28;;;-3.68;100.00
49947;BME280;35839;48.662;13.300;2022-12-20T06:51:05;98146.59;;;-3.96;100.00
49947;BME280;35839;48.662;13.300;2022-12-20T06:53:31;98137.09;;;-3.92;100.00
49947;BME280;35839;48.662;13.300;2022-12-20T06:55:56;98143.00;;;-3.89;100.00
49947;BME280;35839;48.662;13.300;2022-12-20T06:58:21;98137.75;;;-3.84;100.00
49947;BME280;35839;48.662;13.300;2022-12-20T07:00:47;98136.94;;;-3.86;100.00
49947;BME280;35839;48.662;13.300;2022-12-20T07:03:12;98129.09;;;-3.80;100.00
49947;BME280;35839;48.662;13.300;2022-12-20T07:05:38;98126.59;;;-3.82;100.00
49947;BME280;35839;48.662;13.300;2022-12-20T07:08:04;98126.28;;;-4.02;100.00
49947;BME280;35839;48.662;13.300;2022-12-20T07:10:33;98123.56;;;-3.96;100.00
49947;BME280;35839;48.662;13.300;2022-12-20T07:12:59;98132.91;;;-3.95;100.00
49947;BME280;35839;48.662;13.300;2022-12-20T07:15:25;98128.94;;;-4.05;100.00
49947;BME280;35839;48.662;13.300;2022-12-20T07:17:50;98129.66;;;-4.00;100.00
49947;BME280;35839;48.662;13.300;2022-12-20T07:20:16;98131.25;;;-3.96;100.00
49947;BME280;35839;48.662;13.300;2022-12-20T07:22:41;98133.16;;;-4.04;100.00
49947;BME280;35839;48.662;13.300;2022-12-20T07:25:07;98144.91;;;-3.97;100.00
49947;BME280;35839;48.662;13.300;2022-12-20T07:27:32;98139.50;;;-3.86;100.00
49947;BME280;35839;48.662;13.300;2022-12-20T07:29:57;98133.34;;;-3.79;100.00
49947;BME280;35839;48.662;13.300;2022-12-20T07:32:23;98137.28;;;-3.67;100.00
49947;BME280;35839;48.662;13.300;2022-12-20T07:34:48;98130.13;;;-3.56;100.00
49947;BME280;35839;48.662;13.300;2022-12-20T07:37:13;98141.09;;;-3.52;100.00
49947;BME280;35839;48.662;13.300;2022-12-20T07:39:39;98153.84;;;-3.49;100.00
49947;BME280;35839;48.662;13.300;2022-12-20T07:42:06;98152.84;;;-3.45;100.00
49947;BME280;35839;48.662;13.300;2022-12-20T07:44:31;98139.03;;;-3.40;100.00
49947;BME280;35839;48.662;13.300;2022-12-20T07:46:57;98142.91;;;-3.26;100.00
49947;BME280;35839;48.662;13.300;2022-12-20T07:49:22;98148.59;;;-3.16;100.00
49947;BME280;35839;48.662;13.300;2022-12-20T07:51:49;98154.81;;;-3.25;100.00
49947;BME280;35839;48.662;13.300;2022-12-20T07:54:24;98156.03;;;-3.09;100.00
49947;BME280;35839;48.662;13.300;2022-12-20T07:56:54;98162.25;;;-3.16;100.00
49947;BME280;35839;48.662;13.300;2022-12-20T07:59:29;98156.28;;;-3.16;100.00
49947;BME280;35839;48.662;13.300;2022-12-20T08:01:59;98163.84;;;-3.12;100.00
49947;BME280;35839;48.662;13.300;2022-12-20T08:04:26;98163.16;;;-3.19;100.00
49947;BME280;35839;48.662;13.300;2022-12-20T08:06:54;98148.88;;;-2.98;100.00
49947;BME280;35839;48.662;13.300;2022-12-20T08:09:21;98145.13;;;-2.87;100.00
49947;BME280;35839;48.662;13.300;2022-12-20T08:11:49;98148.59;;;-2.88;100.00
49947;BME280;35839;48.662;13.300;2022-12-20T08:14:16;98144.41;;;-2.91;100.00
49947;BME280;35839;48.662;13.300;2022-12-20T08:16:42;98138.06;;;-3.07;100.00
49947;BME280;35839;48.662;13.300;2022-12-20T08:19:08;98137.44;;;-2.87;100.00
49947;BME280;35839;48.662;13.300;2022-12-20T08:21:33;98138.13;;;-2.82;100.00
49947;BME280;35839;48.662;13.300;2022-12-20T08:23:59;98139.03;;;-2.83;100.00
49947;BME280;35839;48.662;13.300;2022-12-20T08:26:24;98138.03;;;-2.79;100.00
49947;BME280;35839;48.662;13.300;2022-12-20T08:28:50;98131.59;;;-2.66;100.00
49947;BME280;35839;48.662;13.300;2022-12-20T08:31:15;98117.97;;;-2.66;100.00
49947;BME280;35839;48.662;13.300;2022-12-20T08:33:41;98116.56;;;-2.75;100.00
49947;BME280;35839;48.662;13.300;2022-12-20T08:36:09;98115.75;;;-2.77;100.00
49947;BME280;35839;48.662;13.300;2022-12-20T08:38:35;98114.56;;;-2.67;100.00
49947;BME280;35839;48.662;13.300;2022-12-20T08:41:03;98113.00;;;-2.46;100.00
49947;BME280;35839;48.662;13.300;2022-12-20T08:43:29;98104.97;;;-2.35;100.00
49947;BME280;35839;48.662;13.300;2022-12-20T08:45:54;98110.66;;;-2.27;100.00
49947;BME280;35839;48.662;13.300;2022-12-20T08:48:21;98108.88;;;-2.25;100.00
49947;BME280;35839;48.662;13.300;2022-12-20T08:50:47;98127.63;;;-2.23;100.00
49947;BME280;35839;48.662;13.300;2022-12-20T08:53:12;98123.84;;;-2.13;100.00
49947;BME280;35839;48.662;13.300;2022-12-20T08:55:37;98117.25;;;-2.20;100.00
49947;BME280;35839;48.662;13.300;2022-12-20T08:58:03;98107.56;;;-2.12;100.00
49947;BME280;35839;48.662;13.300;2022-12-20T09:00:28;98105.31;;;-2.21;100.00
49947;BME280;35839;48.662;13.300;2022-12-20T09:02:53;98113.69;;;-2.16;100.00
49947;BME280;35839;48.662;13.300;2022-12-20T09:05:19;98113.59;;;-2.13;100.00
49947;BME280;35839;48.662;13.300;2022-12-20T09:07:45;98099.09;;;-2.14;100.00
49947;BME280;35839;48.662;13.300;2022-12-20T09:10:10;98091.59;;;-2.20;100.00
49947;BME280;35839;48.662;13.300;2022-12-20T09:12:37;98093.22;;;-2.17;100.00
49947;BME280;35839;48.662;13.300;2022-12-20T09:15:04;98087.13;;;-2.15;100.00
49947;BME280;35839;48.662;13.300;2022-12-20T09:17:29;98086.06;;;-2.07;100.00
49947;BME280;35839;48.662;13.300;2022-12-20T09:19:55;98086.06;;;-2.07;100.00
49947;BME280;35839;48.662;13.300;2022-12-20T09:22:20;98085.84;;;-2.03;100.00
49947;BME280;35839;48.662;13.300;2022-12-20T09:24:45;98080.91;;;-2.07;100.00
49947;BME280;35839;48.662;13.300;2022-12-20T09:27:10;98080.22;;;-2.13;100.00
49947;BME280;35839;48.662;13.300;2022-12-20T09:29:36;98074.88;;;-2.06;100.00
49947;BME280;35839;48.662;13.300;2022-12-20T09:32:02;98086.88;;;-2.07;100.00
49947;BME280;35839;48.662;13.300;2022-12-20T09:34:27;98083.91;;;-1.96;100.00
49947;BME280;35839;48.662;13.300;2022-12-20T09:36:52;98076.91;;;-1.91;100.00
49947;BME280;35839;48.662;13.300;2022-12-20T09:39:17;98067.84;;;-1.78;100.00
49947;BME280;35839;48.662;13.300;2022-12-20T09:41:43;98064.53;;;-1.58;100.00
49947;BME280;35839;48.662;13.300;2022-12-20T09:44:19;98084.25;;;-1.58;100.00
49947;BME280;35839;48.662;13.300;2022-12-20T09:46:53;98080.59;;;-1.53;100.00
49947;BME280;35839;48.662;13.300;2022-12-20T09:49:22;98083.84;;;-1.48;100.00
49947;BME280;35839;48.662;13.300;2022-12-20T09:55:09;98088.81;;;-1.43;100.00
49947;BME280;35839;48.662;13.300;2022-12-20T09:58:09;98082.81;;;-1.21;100.00
49947;BME280;35839;48.662;13.300;2022-12-20T10:00:42;98075.78;;;-1.38;100.00
49947;BME280;35839;48.662;13.300;2022-12-20T10:03:17;98073.28;;;-1.40;100.00
49947;BME280;35839;48.662;13.300;2022-12-20T10:08:41;98086.31;;;-1.22;100.00
49947;BME280;35839;48.662;13.300;2022-12-20T10:16:28;98066.94;;;-1.31;100.00
49947;BME280;35839;48.662;13.300;2022-12-20T10:21:55;98059.84;;;-1.24;100.00
49947;BME280;35839;48.662;13.300;2022-12-20T10:24:29;98052.34;;;-1.31;100.00
49947;BME280;35839;48.662;13.300;2022-12-20T10:26:57;98048.03;;;-1.08;100.00
49947;BME280;35839;48.662;13.300;2022-12-20T10:29:26;98052.00;;;-0.99;100.00
49947;BME280;35839;48.662;13.300;2022-12-20T10:31:52;98045.47;;;-1.08;100.00
49947;BME280;35839;48.662;13.300;2022-12-20T10:34:18;98041.72;;;-0.99;100.00
49947;BME280;35839;48.662;13.300;2022-12-20T10:36:44;98041.19;;;-0.87;100.00
49947;BME280;35839;48.662;13.300;2022-12-20T10:39:09;98024.47;;;-0.56;100.00
49947;BME280;35839;48.662;13.300;2022-12-20T10:46:41;98003.97;;;-0.58;100.00
49947;BME280;35839;48.662;13.300;2022-12-20T10:49:36;98007.19;;;-0.53;100.00
49947;BME280;35839;48.662;13.300;2022-12-20T10:54:36;98004.56;;;-0.72;100.00
49947;BME280;35839;48.662;13.300;2022-12-20T10:57:13;97990.47;;;-0.63;100.00
49947;BME280;35839;48.662;13.300;2022-12-20T10:59:43;97991.22;;;-0.61;100.00
49947;BME280;35839;48.662;13.300;2022-12-20T11:07:38;97998.38;;;-0.28;100.00
49947;BME280;35839;48.662;13.300;2022-12-20T11:10:20;97977.56;;;-0.43;100.00
49947;BME280;35839;48.662;13.300;2022-12-20T11:13:00;97975.53;;;-0.55;100.00
49947;BME280;35839;48.662;13.300;2022-12-20T11:15:34;97974.03;;;-0.21;100.00
49947;BME280;35839;48.662;13.300;2022-12-20T11:18:34;97981.28;;;-0.29;100.00
49947;BME280;35839;48.662;13.300;2022-12-20T11:23:43;97962.50;;;-0.31;100.00
49947;BME280;35839;48.662;13.300;2022-12-20T11:31:59;97947.22;;;-0.34;100.00
49947;BME280;35839;48.662;13.300;2022-12-20T11:37:25;97954.31;;;-0.20;100.00
49947;BME280;35839;48.662;13.300;2022-12-20T11:43:16;97974.81;;;-0.19;100.00
49947;BME280;35839;48.662;13.300;2022-12-20T11:46:19;97960.22;;;0.01;100.00
49947;BME280;35839;48.662;13.300;2022-12-20T11:51:25;97946.25;;;-0.13;100.00
49947;BME280;35839;48.662;13.300;2022-12-20T11:54:09;97941.09;;;-0.13;100.00
49947;BME280;35839;48.662;13.300;2022-12-20T11:56:40;97939.84;;;-0.04;100.00
49947;BME280;35839;48.662;13.300;2022-12-20T12:01:56;97924.53;;;-0.26;100.00
49947;BME280;35839;48.662;13.300;2022-12-20T12:04:29;97931.72;;;-0.14;100.00
49947;BME280;35839;48.662;13.300;2022-12-20T12:12:37;97937.91;;;-0.18;100.00
49947;BME280;35839;48.662;13.300;2022-12-20T12:17:57;97929.75;;;-0.09;100.00
49947;BME280;35839;48.662;13.300;2022-12-20T12:23:18;97919.09;;;-0.20;100.00
49947;BME280;35839;48.662;13.300;2022-12-20T12:25:47;97918.50;;;-0.25;100.00
49947;BME280;35839;48.662;13.300;2022-12-20T12:28:12;97913.19;;;-0.22;100.00
49947;BME280;35839;48.662;13.300;2022-12-20T12:30:45;97912.56;;;-0.08;100.00
49947;BME280;35839;48.662;13.300;2022-12-20T12:33:19;97892.31;;;0.03;100.00
49947;BME280;35839;48.662;13.300;2022-12-20T12:36:05;97898.03;;;-0.09;100.00
49947;BME280;35839;48.662;13.300;2022-12-20T12:39:08;97889.13;;;0.15;100.00
49947;BME280;35839;48.662;13.300;2022-12-20T12:44:40;97869.16;;;-0.16;100.00
49947;BME280;35839;48.662;13.300;2022-12-20T12:47:18;97849.28;;;-0.31;100.00
49947;BME280;35839;48.662;13.300;2022-12-20T12:49:49;97843.25;;;-0.30;100.00
49947;BME280;35839;48.662;13.300;2022-12-20T12:52:28;97840.09;;;-0.18;100.00
49947;BME280;35839;48.662;13.300;2022-12-20T12:54:54;97841.63;;;-0.14;100.00
49947;BME280;35839;48.662;13.300;2022-12-20T12:57:20;97851.00;;;0.05;100.00
49947;BME280;35839;48.662;13.300;2022-12-20T12:59:46;97837.56;;;0.17;100.00
49947;BME280;35839;48.662;13.300;2022-12-20T13:07:40;97833.69;;;0.26;100.00
49947;BME280;35839;48.662;13.300;2022-12-20T13:20:37;97901.31;;;0.31;100.00
49947;BME280;35839;48.662;13.300;2022-12-20T13:25:45;97898.28;;;0.40;100.00
49947;BME280;35839;48.662;13.300;2022-12-20T13:33:45;97879.56;;;0.36;100.00
49947;BME280;35839;48.662;13.300;2022-12-20T13:38:48;97863.16;;;0.03;100.00
49947;BME280;35839;48.662;13.300;2022-12-20T13:44:41;97867.44;;;0.02;100.00
49947;BME280;35839;48.662;13.300;2022-12-20T13:46:52;97855.16;;;0.26;100.00
49947;BME280;35839;48.662;13.300;2022-12-20T13:49:36;97826.66;;;0.12;100.00
49947;BME280;35839;48.662;13.300;2022-12-20T13:52:23;97818.19;;;-0.27;100.00
49947;BME280;35839;48.662;13.300;2022-12-20T13:54:54;97797.41;;;-0.41;100.00
49947;BME280;35839;48.662;13.300;2022-12-20T13:57:26;97805.19;;;-0.43;100.00
49947;BME280;35839;48.662;13.300;2022-12-20T13:59:54;97789.97;;;-0.47;100.00
49947;BME280;35839;48.662;13.300;2022-12-20T14:02:23;97790.19;;;-0.52;100.00
49947;BME280;35839;48.662;13.300;2022-12-20T14:05:02;97800.91;;;-0.61;100.00
49947;BME280;35839;48.662;13.300;2022-12-20T14:07:29;97812.31;;;-0.67;100.00
49947;BME280;35839;48.662;13.300;2022-12-20T14:10:00;97816.34;;;-0.61;100.00
49947;BME280;35839;48.662;13.300;2022-12-20T14:12:27;97816.75;;;-0.70;100.00
49947;BME280;35839;48.662;13.300;2022-12-20T14:14:53;97818.97;;;-0.44;100.00
49947;BME280;35839;48.662;13.300;2022-12-20T14:17:30;97809.31;;;-0.38;100.00
49947;BME280;35839;48.662;13.300;2022-12-20T14:20:06;97818.81;;;-0.40;100.00
49947;BME280;35839;48.662;13.300;2022-12-20T14:22:36;97821.47;;;-0.61;100.00
49947;BME280;35839;48.662;13.300;2022-12-20T14:25:05;97820.09;;;-0.68;100.00
49947;BME280;35839;48.662;13.300;2022-12-20T14:27:34;97828.97;;;-0.75;100.00
49947;BME280;35839;48.662;13.300;2022-12-20T14:30:02;97831.53;;;-0.94;100.00
49947;BME280;35839;48.662;13.300;2022-12-20T14:32:28;97844.13;;;-1.07;100.00
49947;BME280;35839;48.662;13.300;2022-12-20T14:34:53;97831.06;;;-1.02;100.00
49947;BME280;35839;48.662;13.300;2022-12-20T14:37:33;97841.59;;;-1.09;100.00
49947;BME280;35839;48.662;13.300;2022-12-20T14:40:15;97842.47;;;-1.10;100.00
49947;BME280;35839;48.662;13.300;2022-12-20T14:42:41;97840.78;;;-1.09;100.00
49947;BME280;35839;48.662;13.300;2022-12-20T14:47:36;97829.19;;;-1.19;100.00
49947;BME280;35839;48.662;13.300;2022-12-20T14:50:16;97818.81;;;-1.16;100.00
49947;BME280;35839;48.662;13.300;2022-12-20T14:52:43;97825.63;;;-1.36;100.00
49947;BME280;35839;48.662;13.300;2022-12-20T14:57:48;97826.88;;;-1.44;100.00
49947;BME280;35839;48.662;13.300;2022-12-20T15:00:25;97834.78;;;-1.49;100.00
49947;BME280;35839;48.662;13.300;2022-12-20T15:08:13;97821.44;;;-1.59;100.00
49947;BME280;35839;48.662;13.300;2022-12-20T15:11:07;97821.00;;;-1.68;100.00
49947;BME280;35839;48.662;13.300;2022-12-20T15:13:41;97800.56;;;-1.70;100.00
49947;BME280;35839;48.662;13.300;2022-12-20T15:18:38;97791.53;;;-1.80;100.00
49947;BME280;35839;48.662;13.300;2022-12-20T15:21:06;97797.88;;;-1.89;100.00
49947;BME280;35839;48.662;13.300;2022-12-20T15:23:35;97792.38;;;-2.00;100.00
49947;BME280;35839;48.662;13.300;2022-12-20T15:26:01;97801.50;;;-1.93;100.00
49947;BME280;35839;48.662;13.300;2022-12-20T15:28:27;97798.25;;;-1.98;100.00
49947;BME280;35839;48.662;13.300;2022-12-20T15:30:53;97802.59;;;-1.78;100.00
49947;BME280;35839;48.662;13.300;2022-12-20T15:33:26;97809.56;;;-1.82;100.00
49947;BME280;35839;48.662;13.300;2022-12-20T15:35:54;97811.66;;;-1.70;100.00
49947;BME280;35839;48.662;13.300;2022-12-20T15:38:24;97823.44;;;-1.45;100.00
49947;BME280;35839;48.662;13.300;2022-12-20T15:40:55;97818.69;;;-1.54;100.00
49947;BME280;35839;48.662;13.300;2022-12-20T15:43:24;97817.72;;;-1.52;100.00
49947;BME280;35839;48.662;13.300;2022-12-20T15:45:52;97833.47;;;-1.59;100.00
49947;BME280;35839;48.662;13.300;2022-12-20T15:48:21;97825.19;;;-1.66;100.00
49947;BME280;35839;48.662;13.300;2022-12-20T15:50:55;97811.31;;;-1.62;100.00
49947;BME280;35839;48.662;13.300;2022-12-20T15:53:26;97780.84;;;-1.70;100.00
49947;BME280;35839;48.662;13.300;2022-12-20T15:55:54;97781.84;;;-1.74;100.00
49947;BME280;35839;48.662;13.300;2022-12-20T15:58:21;97787.75;;;-1.51;100.00
49947;BME280;35839;48.662;13.300;2022-12-20T16:00:47;97779.03;;;-1.67;100.00
49947;BME280;35839;48.662;13.300;2022-12-20T16:03:18;97773.13;;;-1.70;100.00
49947;BME280;35839;48.662;13.300;2022-12-20T16:05:46;97761.31;;;-1.74;100.00
49947;BME280;35839;48.662;13.300;2022-12-20T16:08:11;97742.31;;;-1.70;100.00
49947;BME280;35839;48.662;13.300;2022-12-20T16:10:37;97738.97;;;-1.72;100.00
49947;BME280;35839;48.662;13.300;2022-12-20T16:13:02;97726.59;;;-1.82;100.00
49947;BME280;35839;48.662;13.300;2022-12-20T16:15:28;97725.63;;;-1.80;100.00
49947;BME280;35839;48.662;13.300;2022-12-20T16:17:54;97724.94;;;-1.63;100.00
49947;BME280;35839;48.662;13.300;2022-12-20T16:20:19;97722.81;;;-1.74;100.00
49947;BME280;35839;48.662;13.300;2022-12-20T16:22:45;97723.44;;;-1.68;100.00
49947;BME280;35839;48.662;13.300;2022-12-20T16:25:26;97725.81;;;-1.64;100.00
49947;BME280;35839;48.662;13.300;2022-12-20T16:27:52;97737.19;;;-1.70;100.00
49947;BME280;35839;48.662;13.300;2022-12-20T16:30:17;97733.31;;;-1.59;100.00
49947;BME280;35839;48.662;13.300;2022-12-20T16:32:42;97735.28;;;-1.45;100.00
49947;BME280;35839;48.662;13.300;2022-12-20T16:37:48;97740.38;;;-1.44;100.00
49947;BME280;35839;48.662;13.300;2022-12-20T16:40:14;97746.66;;;-1.51;100.00
49947;BME280;35839;48.662;13.300;2022-12-20T16:42:40;97756.94;;;-1.51;100.00
49947;BME280;35839;48.662;13.300;2022-12-20T16:45:08;97756.09;;;-1.52;100.00
49947;BME280;35839;48.662;13.300;2022-12-20T16:47:35;97758.19;;;-1.41;100.00
49947;BME280;35839;48.662;13.300;2022-12-20T16:50:00;97767.06;;;-1.48;100.00
49947;BME280;35839;48.662;13.300;2022-12-20T16:52:26;97768.13;;;-1.33;100.00
49947;BME280;35839;48.662;13.300;2022-12-20T16:54:51;97768.78;;;-1.28;100.00
49947;BME280;35839;48.662;13.300;2022-12-20T16:57:16;97768.47;;;-1.41;100.00
49947;BME280;35839;48.662;13.300;2022-12-20T16:59:42;97759.34;;;-1.28;100.00
49947;BME280;35839;48.662;13.300;2022-12-20T17:02:39;97744.19;;;-1.15;100.00
49947;BME280;35839;48.662;13.300;2022-12-20T17:05:05;97736.44;;;-1.13;100.00
49947;BME280;35839;48.662;13.300;2022-12-20T17:07:31;97744.00;;;-1.10;100.00
49947;BME280;35839;48.662;13.300;2022-12-20T17:09:56;97750.25;;;-0.97;100.00
49947;BME280;35839;48.662;13.300;2022-12-20T17:12:23;97756.72;;;-1.07;100.00
49947;BME280;35839;48.662;13.300;2022-12-20T17:14:48;97738.38;;;-1.18;100.00
49947;BME280;35839;48.662;13.300;2022-12-20T17:17:13;97752.13;;;-1.19;100.00
49947;BME280;35839;48.662;13.300;2022-12-20T17:19:39;97756.63;;;-1.24;100.00
49947;BME280;35839;48.662;13.300;2022-12-20T17:22:05;97755.84;;;-1.27;100.00
49947;BME280;35839;48.662;13.300;2022-12-20T17:24:30;97762.00;;;-1.10;100.00
49947;BME280;35839;48.662;13.300;2022-12-20T17:26:56;97773.84;;;-1.27;100.00
49947;BME280;35839;48.662;13.300;2022-12-20T17:29:21;97767.88;;;-1.27;100.00
49947;BME280;35839;48.662;13.300;2022-12-20T17:31:48;97763.97;;;-1.36;100.00
49947;BME280;35839;48.662;13.300;2022-12-20T17:34:24;97761.28;;;-1.33;100.00
49947;BME280;35839;48.662;13.300;2022-12-20T17:36:51;97761.13;;;-1.30;100.00
49947;BME280;35839;48.662;13.300;2022-12-20T17:39:18;97765.72;;;-1.36;100.00
49947;BME280;35839;48.662;13.300;2022-12-20T17:41:44;97768.34;;;-1.38;100.00
49947;BME280;35839;48.662;13.300;2022-12-20T17:46:43;97776.38;;;-1.45;100.00
49947;BME280;35839;48.662;13.300;2022-12-20T17:49:08;97763.59;;;-1.47;100.00
49947;BME280;35839;48.662;13.300;2022-12-20T17:51:33;97760.16;;;-1.46;100.00
49947;BME280;35839;48.662;13.300;2022-12-20T17:53:59;97745.91;;;-1.53;100.00
49947;BME280;35839;48.662;13.300;2022-12-20T17:56:33;97739.25;;;-1.38;100.00
49947;BME280;35839;48.662;13.300;2022-12-20T17:59:01;97734.59;;;-1.49;100.00
49947;BME280;35839;48.662;13.300;2022-12-20T18:01:31;97727.97;;;-1.55;100.00
49947;BME280;35839;48.662;13.300;2022-12-20T18:03:59;97722.22;;;-1.60;100.00
49947;BME280;35839;48.662;13.300;2022-12-20T18:06:25;97733.31;;;-1.59;100.00
49947;BME280;35839;48.662;13.300;2022-12-20T18:08:55;97733.16;;;-1.56;100.00
49947;BME280;35839;48.662;13.300;2022-12-20T18:11:21;97715.91;;;-1.53;100.00
49947;BME280;35839;48.662;13.300;2022-12-20T18:13:49;97709.19;;;-1.55;100.00
49947;BME280;35839;48.662;13.300;2022-12-20T18:16:24;97708.22;;;-1.53;100.00
49947;BME280;35839;48.662;13.300;2022-12-20T18:18:50;97715.44;;;-1.42;100.00
49947;BME280;35839;48.662;13.300;2022-12-20T18:21:17;97713.75;;;-1.43;100.00
49947;BME280;35839;48.662;13.300;2022-12-20T18:23:44;97717.66;;;-1.34;100.00
49947;BME280;35839;48.662;13.300;2022-12-20T18:26:16;97722.09;;;-1.38;100.00
49947;BME280;35839;48.662;13.300;2022-12-20T18:28:43;97708.78;;;-1.27;100.00
49947;BME280;35839;48.662;13.300;2022-12-20T18:31:11;97699.94;;;-1.40;100.00
49947;BME280;35839;48.662;13.300;2022-12-20T18:33:38;97704.06;;;-1.17;100.00
49947;BME280;35839;48.662;13.300;2022-12-20T18:36:11;97707.13;;;-1.09;100.00
49947;BME280;35839;48.662;13.300;2022-12-20T18:38:38;97703.91;;;-1.33;100.00
49947;BME280;35839;48.662;13.300;2022-12-20T18:41:06;97702.66;;;-1.24;100.00
49947;BME280;35839;48.662;13.300;2022-12-20T18:43:33;97705.66;;;-1.34;100.00
49947;BME280;35839;48.662;13.300;2022-12-20T18:46:03;97699.28;;;-1.44;100.00
49947;BME280;35839;48.662;13.300;2022-12-20T18:48:29;97685.03;;;-1.32;100.00
49947;BME280;35839;48.662;13.300;2022-12-20T18:50:54;97682.53;;;-1.34;100.00
49947;BME280;35839;48.662;13.300;2022-12-20T18:53:19;97677.75;;;-1.41;100.00
49947;BME280;35839;48.662;13.300;2022-12-20T18:55:45;97669.47;;;-1.29;100.00
49947;BME280;35839;48.662;13.300;2022-12-20T18:58:11;97667.31;;;-1.38;100.00
49947;BME280;35839;48.662;13.300;2022-12-20T19:00:37;97679.75;;;-1.10;100.00
49947;BME280;35839;48.662;13.300;2022-12-20T19:03:02;97669.13;;;-1.21;100.00
49947;BME280;35839;48.662;13.300;2022-12-20T19:05:31;97665.06;;;-1.25;100.00
49947;BME280;35839;48.662;13.300;2022-12-20T19:07:57;97653.78;;;-1.04;100.00
49947;BME280;35839;48.662;13.300;2022-12-20T19:10:23;97653.28;;;-1.12;100.00
49947;BME280;35839;48.662;13.300;2022-12-20T19:12:48;97648.50;;;-1.20;100.00
49947;BME280;35839;48.662;13.300;2022-12-20T19:15:13;97634.88;;;-1.22;100.00
49947;BME280;35839;48.662;13.300;2022-12-20T19:17:39;97634.88;;;-1.22;100.00
49947;BME280;35839;48.662;13.300;2022-12-20T19:20:05;97634.97;;;-1.23;100.00
49947;BME280;35839;48.662;13.300;2022-12-20T19:22:31;97644.63;;;-1.29;100.00
49947;BME280;35839;48.662;13.300;2022-12-20T19:24:56;97649.13;;;-1.34;100.00
49947;BME280;35839;48.662;13.300;2022-12-20T19:27:22;97652.53;;;-1.52;100.00
49947;BME280;35839;48.662;13.300;2022-12-20T19:29:47;97654.00;;;-1.46;100.00
49947;BME280;35839;48.662;13.300;2022-12-20T19:32:13;97651.00;;;-1.56;100.00
49947;BME280;35839;48.662;13.300;2022-12-20T19:34:39;97652.41;;;-1.49;100.00
49947;BME280;35839;48.662;13.300;2022-12-20T19:37:04;97638.38;;;-1.23;100.00
49947;BME280;35839;48.662;13.300;2022-12-20T19:39:30;97631.44;;;-1.40;100.00
49947;BME280;35839;48.662;13.300;2022-12-20T19:41:55;97637.97;;;-1.33;100.00
49947;BME280;35839;48.662;13.300;2022-12-20T19:44:21;97628.22;;;-1.45;100.00
49947;BME280;35839;48.662;13.300;2022-12-20T19:46:46;97624.22;;;-1.70;100.00
49947;BME280;35839;48.662;13.300;2022-12-20T19:49:12;97618.34;;;-1.92;100.00
49947;BME280;35839;48.662;13.300;2022-12-20T19:51:37;97625.91;;;-1.89;100.00
49947;BME280;35839;48.662;13.300;2022-12-20T19:54:03;97643.75;;;-1.86;100.00
49947;BME280;35839;48.662;13.300;2022-12-20T19:56:31;97650.69;;;-1.88;100.00
49947;BME280;35839;48.662;13.300;2022-12-20T19:58:58;97643.19;;;-1.93;100.00
49947;BME280;35839;48.662;13.300;2022-12-20T20:01:24;97633.22;;;-1.80;100.00
49947;BME280;35839;48.662;13.300;2022-12-20T20:03:55;97628.38;;;-1.67;100.00
49947;BME280;35839;48.662;13.300;2022-12-20T20:06:22;97633.34;;;-1.83;100.00
49947;BME280;35839;48.662;13.300;2022-12-20T20:08:48;97628.31;;;-1.65;100.00
49947;BME280;35839;48.662;13.300;2022-12-20T20:11:14;97626.78;;;-1.70;100.00
49947;BME280;35839;48.662;13.300;2022-12-20T20:13:39;97621.44;;;-1.84;100.00
49947;BME280;35839;48.662;13.300;2022-12-20T20:16:06;97616.97;;;-1.99;100.00
49947;BME280;35839;48.662;13.300;2022-12-20T20:18:36;97613.75;;;-2.04;100.00
49947;BME280;35839;48.662;13.300;2022-12-20T20:21:10;97618.59;;;-1.98;100.00
49947;BME280;35839;48.662;13.300;2022-12-20T20:23:37;97603.75;;;-2.10;100.00
49947;BME280;35839;48.662;13.300;2022-12-20T20:26:06;97594.84;;;-2.22;100.00
49947;BME280;35839;48.662;13.300;2022-12-20T20:28:33;97595.06;;;-2.47;100.00
49947;BME280;35839;48.662;13.300;2022-12-20T20:31:00;97590.69;;;-2.45;100.00
49947;BME280;35839;48.662;13.300;2022-12-20T20:33:26;97590.69;;;-2.45;100.00
49947;BME280;35839;48.662;13.300;2022-12-20T20:35:53;97596.22;;;-2.34;100.00
49947;BME280;35839;48.662;13.300;2022-12-20T20:38:19;97616.72;;;-2.34;100.00